Time;durP1;ratioP1;P1;durP2;ratioP2;P2;SDS_P1;SDS_P2;PMS_P1;PMS_P2;Temp;Humidity;BMP_temperature;BMP_pressure;BME280_temperature;BME280_humidity;BME280_pressure;Samples;Min_cycle;Max_cycle;Signal;HPM_P1;HPM_P2
2022/06/19 00:00:29;;;;;;;5.83;1.53;;;23.80;99.90;;;;;;5038911;28;20185;-82
2022/06/19 00:02:54;;;;;;;4.27;0.90;;;23.50;99.90;;;;;;5041931;28;20258;-82
2022/06/19 00:05:20;;;;;;;0.60;0.60;;;23.40;99.90;;;;;;5041541;28;20328;-82
2022/06/19 00:07:45;;;;;;;1.87;1.10;;;23.40;99.90;;;;;;5043512;28;20213;-82
2022/06/19 00:10:12;;;;;;;0.67;0.67;;;23.50;99.90;;;;;;5042997;28;20194;-82
2022/06/19 00:12:38;;;;;;;0.87;0.70;;;23.50;99.90;;;;;;5058890;28;20289;-82
2022/06/19 00:15:04;;;;;;;1.20;1.03;;;23.60;99.90;;;;;;5043094;28;20185;-83
2022/06/19 00:17:30;;;;;;;2.07;0.50;;;23.60;99.90;;;;;;5041353;28;20202;-82
2022/06/19 00:19:55;;;;;;;0.53;0.50;;;23.50;99.90;;;;;;5046824;28;20548;-82
2022/06/19 00:22:21;;;;;;;1.63;1.20;;;23.40;99.90;;;;;;5046129;28;20196;-82
2022/06/19 00:24:46;;;;;;;2.17;0.60;;;23.30;99.90;;;;;;5046288;28;20185;-82
2022/06/19 00:27:12;;;;;;;0.87;0.53;;;23.30;99.90;;;;;;5044068;28;20284;-82
2022/06/19 00:29:38;;;;;;;0.80;0.80;;;23.30;99.90;;;;;;5044531;28;20324;-82
2022/06/19 00:32:07;;;;;;;0.60;0.60;;;23.30;99.90;;;;;;5045616;28;20311;-82
2022/06/19 00:34:34;;;;;;;0.53;0.53;;;23.40;99.90;;;;;;5046553;28;20217;-82
2022/06/19 00:37:01;;;;;;;0.57;0.57;;;23.30;99.90;;;;;;5044064;28;20224;-82
2022/06/19 00:39:27;;;;;;;1.50;1.40;;;23.20;99.90;;;;;;5047548;28;20245;-82
2022/06/19 00:41:53;;;;;;;1.10;1.00;;;23.20;99.90;;;;;;5044195;28;20186;-82
2022/06/19 00:44:18;;;;;;;0.87;0.87;;;23.20;99.90;;;;;;5046487;28;20212;-82
2022/06/19 00:46:52;;;;;;;1.00;1.00;;;23.20;99.90;;;;;;5044199;28;20686;-82
2022/06/19 00:49:36;;;;;;;1.27;0.80;;;23.10;99.90;;;;;;5045825;28;20584;-82
2022/06/19 00:52:11;;;;;;;0.57;0.57;;;23.10;99.90;;;;;;5046866;28;20266;-82
2022/06/19 00:54:48;;;;;;;0.63;0.60;;;23.00;99.90;;;;;;5061537;28;20232;-82
2022/06/19 00:57:16;;;;;;;2.87;0.93;;;23.00;99.90;;;;;;5047870;28;20217;-82
2022/06/19 00:59:46;;;;;;;3.03;0.57;;;22.90;99.90;;;;;;5045078;28;20547;-82
2022/06/19 01:02:14;;;;;;;3.10;0.90;;;22.90;99.90;;;;;;5045035;28;20188;-82
2022/06/19 01:04:46;;;;;;;0.80;0.80;;;22.80;99.90;;;;;;5040974;28;20526;-82
2022/06/19 01:07:13;;;;;;;7.00;0.93;;;22.80;99.90;;;;;;5048295;28;20622;-82
2022/06/19 01:09:39;;;;;;;0.80;0.57;;;23.00;99.90;;;;;;5045147;28;20195;-82
2022/06/19 01:12:05;;;;;;;1.67;1.13;;;23.10;99.90;;;;;;5042889;28;20327;-82
2022/06/19 01:14:31;;;;;;;1.67;1.07;;;23.10;99.90;;;;;;5046851;28;20667;-82
2022/06/19 01:17:00;;;;;;;1.07;1.03;;;23.10;99.90;;;;;;5044460;28;20209;-82
2022/06/19 01:19:29;;;;;;;1.30;1.20;;;23.10;99.90;;;;;;5047137;28;20879;-81
2022/06/19 01:22:02;;;;;;;1.90;1.40;;;23.10;99.90;;;;;;5046096;28;20231;-82
2022/06/19 01:24:35;;;;;;;1.07;1.07;;;23.10;99.90;;;;;;5045736;28;20182;-83
2022/06/19 01:27:01;;;;;;;1.47;1.33;;;23.10;99.90;;;;;;5045352;28;20202;-84
2022/06/19 01:29:32;;;;;;;0.57;0.57;;;23.30;99.90;;;;;;5045431;28;20205;-82
2022/06/19 01:32:01;;;;;;;0.77;0.77;;;23.50;99.90;;;;;;5041193;28;20186;-82
2022/06/19 01:34:35;;;;;;;3.23;2.30;;;23.60;99.90;;;;;;5046067;28;20194;-82
2022/06/19 01:37:08;;;;;;;1.23;0.93;;;23.60;99.90;;;;;;5045925;28;20201;-82
2022/06/19 01:39:47;;;;;;;0.80;0.80;;;23.80;99.90;;;;;;5045467;28;20189;-82
2022/06/19 01:42:13;;;;;;;0.37;0.37;;;23.90;99.90;;;;;;5044683;28;20211;-82
2022/06/19 01:44:42;;;;;;;1.27;0.87;;;23.90;99.90;;;;;;5040426;28;20221;-82
2022/06/19 01:47:07;;;;;;;1.63;1.53;;;23.90;99.90;;;;;;5037957;28;20217;-82
2022/06/19 01:49:35;;;;;;;1.80;0.70;;;23.90;99.90;;;;;;5044179;28;20182;-82
2022/06/19 01:52:03;;;;;;;1.13;0.83;;;23.70;99.90;;;;;;5044592;28;20185;-83
2022/06/19 01:54:33;;;;;;;0.53;0.53;;;23.70;99.90;;;;;;5043731;28;20700;-82
2022/06/19 01:56:59;;;;;;;2.27;0.87;;;23.60;99.90;;;;;;5038993;28;20585;-83
2022/06/19 01:59:29;;;;;;;1.20;0.40;;;23.60;99.90;;;;;;5045839;28;20204;-82
2022/06/19 02:01:55;;;;;;;1.20;0.57;;;23.60;99.90;;;;;;5045343;28;20268;-82
2022/06/19 02:04:23;;;;;;;0.73;0.73;;;23.70;99.90;;;;;;5036484;28;20853;-82
2022/06/19 02:06:53;;;;;;;0.93;0.80;;;23.50;99.90;;;;;;5045020;28;20209;-82
2022/06/19 02:09:21;;;;;;;1.40;0.80;;;23.50;99.90;;;;;;5044021;28;20197;-81
2022/06/19 02:11:47;;;;;;;0.70;0.70;;;23.60;99.90;;;;;;5042167;28;20250;-82
2022/06/19 02:14:14;;;;;;;1.13;1.13;;;23.80;99.90;;;;;;5040108;28;20220;-82
2022/06/19 02:16:42;;;;;;;1.17;0.80;;;23.90;99.90;;;;;;5044567;28;20300;-82
2022/06/19 02:19:08;;;;;;;1.40;1.30;;;23.90;99.90;;;;;;5044730;28;20828;-82
2022/06/19 02:21:41;;;;;;;2.50;1.53;;;23.80;99.90;;;;;;5045727;28;20193;-82
2022/06/19 02:24:09;;;;;;;0.83;0.83;;;23.70;99.90;;;;;;5041194;28;20217;-82
2022/06/19 02:26:37;;;;;;;3.23;1.73;;;23.60;99.90;;;;;;5042091;28;20209;-82
2022/06/19 02:29:06;;;;;;;2.33;1.60;;;23.50;99.90;;;;;;5042319;28;20292;-83
2022/06/19 02:31:34;;;;;;;1.27;0.77;;;23.40;99.90;;;;;;5047889;28;20224;-82
2022/06/19 02:34:03;;;;;;;1.47;0.80;;;23.30;99.90;;;;;;5049222;28;20217;-82
2022/06/19 02:36:49;;;;;;;0.93;0.93;;;23.40;99.90;;;;;;5050585;28;20321;-82
2022/06/19 02:39:37;;;;;;;1.73;0.87;;;23.30;99.90;;;;;;5049897;28;20264;-82
2022/06/19 02:42:20;;;;;;;1.00;0.77;;;23.30;99.90;;;;;;5047206;28;20201;-81
2022/06/19 02:44:50;;;;;;;1.40;1.23;;;23.20;99.90;;;;;;5044338;28;20208;-82
2022/06/19 02:47:16;;;;;;;0.90;0.77;;;23.20;99.90;;;;;;5045061;28;20652;-82
2022/06/19 02:49:42;;;;;;;0.67;0.30;;;23.10;99.90;;;;;;5048226;28;20207;-82
2022/06/19 02:52:10;;;;;;;3.43;1.37;;;23.20;99.90;;;;;;5041400;28;20512;-82
2022/06/19 02:54:36;;;;;;;0.90;0.50;;;23.30;99.90;;;;;;5047877;28;20205;-82
2022/06/19 02:57:02;;;;;;;0.70;0.70;;;23.10;99.90;;;;;;5042995;28;20575;-82
2022/06/19 02:59:27;;;;;;;1.70;1.00;;;23.00;99.90;;;;;;5045853;28;20189;-82
2022/06/19 03:01:53;;;;;;;0.43;0.43;;;22.90;99.90;;;;;;5047493;28;20178;-82
2022/06/19 03:04:24;;;;;;;1.27;1.17;;;22.80;99.90;;;;;;5047356;28;20725;-82
2022/06/19 03:06:51;;;;;;;0.80;0.50;;;22.60;99.90;;;;;;5044694;28;20209;-82
2022/06/19 03:09:16;;;;;;;1.70;1.50;;;22.70;99.90;;;;;;5045301;28;20816;-82
2022/06/19 03:11:42;;;;;;;0.20;0.20;;;22.70;99.90;;;;;;5048006;28;20190;-82
2022/06/19 03:14:08;;;;;;;2.17;2.07;;;22.80;99.90;;;;;;5044888;28;20213;-82
2022/06/19 03:16:34;;;;;;;1.00;0.93;;;22.80;99.90;;;;;;5046389;28;20213;-82
2022/06/19 03:19:00;;;;;;;1.20;1.10;;;22.70;99.90;;;;;;5044111;28;20189;-82
2022/06/19 03:21:26;;;;;;;1.47;0.50;;;22.70;99.90;;;;;;5040723;28;20651;-82
2022/06/19 03:23:52;;;;;;;0.63;0.63;;;22.80;99.90;;;;;;5046204;28;20205;-82
2022/06/19 03:26:18;;;;;;;1.20;1.20;;;22.70;99.90;;;;;;5046856;28;20243;-83
2022/06/19 03:28:43;;;;;;;0.40;0.40;;;22.70;99.90;;;;;;5042384;28;20583;-83
2022/06/19 03:31:22;;;;;;;3.77;0.67;;;22.80;99.90;;;;;;5046453;28;20189;-83
2022/06/19 03:33:48;;;;;;;0.73;0.60;;;22.80;99.90;;;;;;5042480;28;20205;-83
2022/06/19 03:36:14;;;;;;;1.87;1.10;;;22.70;99.90;;;;;;5041153;28;20816;-83
2022/06/19 03:38:40;;;;;;;1.23;1.13;;;22.80;99.90;;;;;;5044757;28;20284;-83
2022/06/19 03:41:05;;;;;;;8.53;0.93;;;22.90;99.90;;;;;;5034496;28;20197;-82
2022/06/19 03:43:33;;;;;;;1.10;0.67;;;23.10;99.90;;;;;;5038863;28;20380;-83
2022/06/19 03:46:01;;;;;;;0.73;0.53;;;23.30;99.90;;;;;;5041454;28;20190;-82
2022/06/19 03:48:26;;;;;;;0.60;0.60;;;23.50;99.90;;;;;;5044238;28;20209;-82
2022/06/19 03:50:52;;;;;;;0.47;0.47;;;23.70;99.90;;;;;;5048217;28;20671;-83
2022/06/19 03:53:18;;;;;;;1.87;0.77;;;23.90;99.90;;;;;;5047286;28;20275;-82
2022/06/19 03:55:44;;;;;;;0.60;0.60;;;24.10;99.90;;;;;;5046153;28;20447;-82
2022/06/19 03:58:09;;;;;;;0.33;0.33;;;24.40;99.90;;;;;;5046889;28;20235;-82
2022/06/19 04:00:35;;;;;;;0.80;0.60;;;24.40;99.90;;;;;;5047149;28;20284;-82
2022/06/19 04:03:01;;;;;;;4.87;1.33;;;24.90;99.90;;;;;;5046702;28;20192;-82
2022/06/19 04:05:26;;;;;;;1.33;1.23;;;25.00;99.90;;;;;;5044352;28;20186;-82
2022/06/19 04:07:52;;;;;;;1.03;1.03;;;25.20;99.90;;;;;;5045548;28;20895;-83
2022/06/19 04:10:19;;;;;;;1.67;1.37;;;25.20;99.90;;;;;;5046043;28;20650;-82
2022/06/19 04:12:44;;;;;;;0.57;0.50;;;25.00;99.90;;;;;;5045038;28;20233;-82
2022/06/19 04:15:12;;;;;;;1.17;1.07;;;25.10;99.90;;;;;;5046091;28;20193;-83
2022/06/19 04:17:39;;;;;;;0.60;0.60;;;25.30;99.90;;;;;;5048305;28;20258;-82
2022/06/19 04:20:07;;;;;;;1.20;1.10;;;25.80;99.90;;;;;;5045710;28;20198;-82
2022/06/19 04:22:33;;;;;;;1.83;0.80;;;26.50;99.90;;;;;;5047810;28;20293;-82
2022/06/19 04:24:59;;;;;;;2.43;0.80;;;27.00;99.90;;;;;;5046416;28;20212;-82
2022/06/19 04:27:24;;;;;;;4.10;0.97;;;27.30;99.90;;;;;;5047529;28;20251;-83
2022/06/19 04:29:50;;;;;;;0.93;0.70;;;26.70;99.90;;;;;;5047228;28;20280;-82
2022/06/19 04:32:16;;;;;;;1.53;1.43;;;26.50;99.90;;;;;;5047985;28;20224;-83
2022/06/19 04:34:41;;;;;;;3.60;2.50;;;26.00;99.90;;;;;;5044723;28;21950;-82
2022/06/19 04:37:07;;;;;;;2.03;1.93;;;25.50;99.90;;;;;;5046430;28;20252;-82
2022/06/19 04:39:33;;;;;;;2.33;1.10;;;25.10;99.90;;;;;;5046620;28;20178;-82
2022/06/19 04:41:59;;;;;;;1.87;1.00;;;24.80;99.90;;;;;;5045837;28;20182;-83
2022/06/19 04:44:25;;;;;;;2.47;1.53;;;24.60;99.90;;;;;;5044860;28;20225;-83
2022/06/19 04:46:50;;;;;;;1.80;0.97;;;24.30;99.90;;;;;;5041124;28;20239;-83
2022/06/19 04:49:17;;;;;;;4.63;1.37;;;24.30;99.90;;;;;;5040553;28;20181;-83
2022/06/19 04:51:44;;;;;;;0.43;0.43;;;24.30;99.90;;;;;;5043610;28;20193;-84
2022/06/19 04:54:10;;;;;;;3.80;0.70;;;24.30;99.90;;;;;;5044829;28;20263;-84
2022/06/19 04:56:37;;;;;;;1.73;1.43;;;24.20;99.90;;;;;;5048038;28;20253;-83
2022/06/19 04:59:03;;;;;;;1.60;1.00;;;24.10;99.90;;;;;;5044787;28;20190;-83
2022/06/19 05:01:35;;;;;;;1.70;1.07;;;24.10;99.90;;;;;;5045864;28;20181;-83
2022/06/19 05:04:05;;;;;;;0.37;0.37;;;24.30;99.90;;;;;;5045489;28;20178;-83
2022/06/19 05:06:31;;;;;;;0.70;0.70;;;24.70;99.90;;;;;;5045476;28;20209;-83
2022/06/19 05:08:58;;;;;;;0.60;0.60;;;25.00;99.90;;;;;;5038857;28;20189;-82
2022/06/19 05:11:25;;;;;;;0.87;0.53;;;25.30;99.90;;;;;;5043947;28;20939;-83
2022/06/19 05:13:51;;;;;;;1.10;0.80;;;25.20;99.90;;;;;;5040349;28;20197;-83
2022/06/19 05:16:22;;;;;;;0.77;0.60;;;25.20;99.90;;;;;;5044521;28;20197;-84
2022/06/19 05:18:49;;;;;;;0.87;0.87;;;25.30;99.90;;;;;;5046207;28;20213;-82
2022/06/19 05:21:15;;;;;;;0.60;0.60;;;25.30;99.90;;;;;;5045023;28;20224;-83
2022/06/19 05:23:44;;;;;;;1.77;1.63;;;25.60;99.90;;;;;;5046648;28;20185;-83
2022/06/19 05:26:19;;;;;;;1.90;1.03;;;25.60;99.90;;;;;;5046724;28;20221;-83
2022/06/19 05:28:45;;;;;;;0.98;0.68;;;25.60;99.90;;;;;;5045435;28;20200;-83
2022/06/19 05:31:11;;;;;;;4.07;1.33;;;25.70;99.90;;;;;;5047944;28;20192;-83
2022/06/19 05:33:37;;;;;;;1.35;0.90;;;25.80;99.90;;;;;;5047904;28;20213;-83
2022/06/19 05:36:03;;;;;;;1.63;1.42;;;26.10;99.90;;;;;;5064794;28;20197;-82
2022/06/19 05:38:29;;;;;;;1.73;0.98;;;26.10;99.90;;;;;;5047970;28;20272;-82
2022/06/19 05:40:56;;;;;;;0.52;0.52;;;25.90;99.90;;;;;;5048440;28;20265;-82
2022/06/19 05:43:24;;;;;;;1.03;1.00;;;26.10;99.90;;;;;;5046256;28;20539;-82
2022/06/19 05:45:55;;;;;;;0.50;0.50;;;26.40;99.90;;;;;;5061663;28;20193;-84
2022/06/19 05:48:23;;;;;;;1.60;0.85;;;26.70;99.90;;;;;;5045748;28;20217;-82
2022/06/19 05:51:05;;;;;;;0.85;0.85;;;27.00;99.90;;;;;;5044952;28;20174;-84
2022/06/19 05:53:35;;;;;;;0.68;0.68;;;27.20;99.90;;;;;;5039447;28;20245;-83
2022/06/19 05:56:01;;;;;;;3.25;0.93;;;27.30;99.90;;;;;;5038290;28;20206;-83
2022/06/19 05:58:27;;;;;;;0.68;0.68;;;27.50;99.90;;;;;;5044455;28;20208;-83
2022/06/19 06:00:52;;;;;;;0.63;0.60;;;27.70;99.90;;;;;;5043303;28;20184;-84
2022/06/19 06:03:20;;;;;;;5.43;1.05;;;27.80;99.90;;;;;;5038367;28;20220;-84
2022/06/19 06:05:46;;;;;;;0.75;0.68;;;28.00;99.90;;;;;;5038187;28;20189;-84
2022/06/19 06:08:12;;;;;;;1.45;1.35;;;28.20;99.90;;;;;;5038145;28;20187;-83
2022/06/19 06:10:38;;;;;;;0.45;0.45;;;28.40;99.90;;;;;;5042748;28;20821;-84
2022/06/19 06:13:05;;;;;;;0.35;0.35;;;28.40;99.90;;;;;;5040442;28;20212;-84
2022/06/19 06:15:31;;;;;;;0.52;0.52;;;28.50;99.90;;;;;;5041951;28;20193;-84
2022/06/19 06:18:00;;;;;;;5.68;1.02;;;28.70;99.90;;;;;;5042206;28;20205;-84
2022/06/19 06:20:27;;;;;;;2.45;1.05;;;28.80;99.90;;;;;;5039834;28;20638;-84
2022/06/19 06:22:52;;;;;;;1.17;1.08;;;28.90;99.90;;;;;;5040484;28;20187;-84
2022/06/19 06:25:18;;;;;;;1.95;1.15;;;29.10;99.90;;;;;;5043628;28;20186;-84
2022/06/19 06:27:44;;;;;;;1.02;0.55;;;29.10;99.90;;;;;;5039671;28;20201;-84
2022/06/19 06:30:11;;;;;;;1.67;1.00;;;29.20;99.90;;;;;;5058422;28;20686;-84
2022/06/19 06:32:37;;;;;;;0.95;0.95;;;29.20;99.90;;;;;;5040464;28;20177;-84
2022/06/19 06:35:03;;;;;;;0.60;0.60;;;29.40;99.90;;;;;;5055565;28;20186;-84
2022/06/19 06:37:28;;;;;;;1.33;0.90;;;29.50;99.90;;;;;;5043604;28;20351;-83
2022/06/19 06:39:54;;;;;;;1.38;1.25;;;29.60;99.90;;;;;;5038318;28;20666;-84
2022/06/19 06:42:20;;;;;;;2.50;1.08;;;29.60;99.90;;;;;;5043565;28;20185;-84
2022/06/19 06:44:45;;;;;;;1.60;1.25;;;29.60;99.90;;;;;;5039390;28;20189;-84
2022/06/19 06:47:11;;;;;;;1.08;1.08;;;29.60;99.90;;;;;;5043629;28;20279;-84
2022/06/19 06:49:36;;;;;;;0.70;0.70;;;29.60;99.90;;;;;;5039511;28;20177;-84
2022/06/19 06:52:02;;;;;;;2.22;1.50;;;29.60;99.90;;;;;;5042286;28;20190;-85
2022/06/19 06:54:28;;;;;;;2.95;1.67;;;29.60;99.90;;;;;;5037018;28;20212;-84
2022/06/19 06:56:54;;;;;;;1.48;0.95;;;29.60;99.90;;;;;;5038300;28;20205;-83
2022/06/19 06:59:20;;;;;;;3.30;1.80;;;29.50;99.90;;;;;;5040215;28;20912;-83
2022/06/19 07:01:46;;;;;;;1.63;1.52;;;29.50;99.90;;;;;;5042500;28;20190;-84
2022/06/19 07:04:11;;;;;;;1.00;1.00;;;29.70;99.90;;;;;;5035004;28;20200;-84
2022/06/19 07:06:37;;;;;;;0.75;0.75;;;29.80;99.90;;;;;;5042537;28;20271;-84
2022/06/19 07:09:04;;;;;;;3.00;1.73;;;29.90;99.90;;;;;;5044415;28;20192;-84
2022/06/19 07:11:37;;;;;;;2.65;1.35;;;30.00;99.90;;;;;;5044221;28;20196;-84
2022/06/19 07:14:03;;;;;;;6.22;3.67;;;30.10;99.90;;;;;;5044268;28;20251;-84
2022/06/19 07:16:29;;;;;;;1.33;1.23;;;30.00;99.90;;;;;;5042372;28;20259;-83
2022/06/19 07:18:54;;;;;;;2.63;2.05;;;30.20;99.90;;;;;;5042662;28;20186;-83
2022/06/19 07:21:21;;;;;;;1.00;1.00;;;30.30;99.90;;;;;;5043884;28;20639;-84
2022/06/19 07:23:46;;;;;;;3.60;1.73;;;30.40;99.90;;;;;;5042758;28;20189;-84
2022/06/19 07:26:14;;;;;;;3.03;1.38;;;30.40;99.90;;;;;;5046954;28;20223;-84
2022/06/19 07:28:41;;;;;;;2.13;1.45;;;30.50;99.90;;;;;;5046363;28;20205;-83
2022/06/19 07:31:07;;;;;;;1.23;1.13;;;30.70;99.90;;;;;;5047962;28;20196;-84
2022/06/19 07:33:34;;;;;;;2.90;2.50;;;30.90;99.90;;;;;;5046192;28;20205;-84
2022/06/19 07:36:00;;;;;;;1.38;1.27;;;30.90;99.90;;;;;;5048972;28;20683;-83
2022/06/19 07:38:25;;;;;;;1.95;1.30;;;31.00;99.90;;;;;;5046930;28;20184;-84
2022/06/19 07:40:51;;;;;;;1.73;1.48;;;30.90;99.90;;;;;;5052044;28;20753;-84
2022/06/19 07:43:17;;;;;;;1.40;1.30;;;31.00;99.90;;;;;;5047092;28;20205;-84
2022/06/19 07:45:42;;;;;;;1.45;1.33;;;31.10;99.90;;;;;;5051417;28;20217;-84
2022/06/19 07:50:54;;;;;;;2.05;1.75;;;31.30;99.90;;;;;;5048316;28;20612;-83
2022/06/19 07:53:20;;;;;;;1.70;1.58;;;31.50;99.90;;;;;;5046220;28;20193;-84
2022/06/19 07:55:46;;;;;;;1.60;1.50;;;31.80;99.90;;;;;;5046616;28;20669;-84
2022/06/19 07:58:11;;;;;;;2.17;1.98;;;31.90;99.90;;;;;;5040693;28;20188;-84
2022/06/19 08:00:38;;;;;;;3.67;2.15;;;32.00;99.90;;;;;;5042628;28;20174;-84
2022/06/19 08:03:04;;;;;;;3.80;1.45;;;31.90;99.90;;;;;;5043528;28;20212;-84
2022/06/19 08:05:34;;;;;;;2.03;1.70;;;32.00;99.90;;;;;;5046842;28;20270;-84
2022/06/19 08:08:01;;;;;;;2.33;1.42;;;32.10;99.90;;;;;;5044420;28;20284;-84
2022/06/19 08:10:30;;;;;;;1.65;1.55;;;32.20;99.90;;;;;;5046008;28;20205;-83
2022/06/19 08:12:57;;;;;;;2.10;1.58;;;32.20;99.90;;;;;;5044600;28;20246;-83
2022/06/19 08:15:24;;;;;;;1.85;1.45;;;32.30;99.90;;;;;;5042871;28;20227;-83
2022/06/19 08:17:50;;;;;;;1.80;1.67;;;32.30;99.90;;;;;;5040661;28;20263;-83
2022/06/19 08:20:16;;;;;;;1.77;1.58;;;32.40;99.90;;;;;;5043620;28;20669;-83
2022/06/19 08:22:43;;;;;;;0.73;0.73;;;32.60;99.90;;;;;;5045147;28;21350;-83
2022/06/19 08:25:10;;;;;;;2.03;1.33;;;32.70;99.90;;;;;;5043847;28;20196;-83
2022/06/19 08:27:39;;;;;;;3.03;2.30;;;32.80;99.90;;;;;;5043434;28;20352;-83
2022/06/19 08:30:07;;;;;;;1.85;1.38;;;32.50;99.90;;;;;;5044070;28;20190;-83
2022/06/19 08:32:33;;;;;;;1.40;1.30;;;32.60;99.90;;;;;;5045388;28;20228;-83
2022/06/19 08:34:58;;;;;;;1.73;1.63;;;32.80;99.90;;;;;;5045794;28;20223;-83
2022/06/19 08:37:24;;;;;;;3.47;2.08;;;32.80;99.90;;;;;;5044981;28;20213;-83
2022/06/19 08:39:49;;;;;;;1.85;1.65;;;32.70;99.90;;;;;;5043063;28;20181;-83
2022/06/19 08:42:31;;;;;;;1.90;1.70;;;32.90;99.90;;;;;;5040516;28;20189;-83
2022/06/19 08:44:59;;;;;;;1.77;1.67;;;33.00;99.90;;;;;;5043676;28;20191;-83
2022/06/19 08:47:49;;;;;;;2.85;2.38;;;33.00;99.90;;;;;;5041463;28;20211;-83
2022/06/19 08:50:33;;;;;;;5.20;2.95;;;33.30;99.90;;;;;;5036407;28;20205;-83
2022/06/19 08:53:28;;;;;;;2.35;1.85;;;33.20;99.90;;;;;;5043752;28;20283;-83
2022/06/19 08:56:12;;;;;;;1.70;1.60;;;33.30;99.90;;;;;;5044257;28;20181;-83
2022/06/19 08:59:05;;;;;;;1.65;1.55;;;33.20;99.90;;;;;;5044680;28;20178;-83
2022/06/19 09:01:53;;;;;;;1.73;1.52;;;33.20;99.90;;;;;;5036688;28;20194;-84
2022/06/19 09:07:55;;;;;;;1.85;1.30;;;33.30;99.90;;;;;;5044790;28;20213;-83
2022/06/19 09:10:26;;;;;;;2.88;2.53;;;33.40;99.90;;;;;;5042462;28;20178;-84
2022/06/19 09:12:57;;;;;;;2.45;1.88;;;33.60;99.90;;;;;;5044106;28;20765;-83
2022/06/19 09:15:37;;;;;;;1.77;1.63;;;33.50;99.90;;;;;;5045290;28;20185;-83
2022/06/19 09:18:21;;;;;;;1.80;1.70;;;33.40;99.90;;;;;;5041665;28;20198;-83
2022/06/19 09:21:06;;;;;;;3.15;1.52;;;33.70;99.90;;;;;;5042905;28;20680;-83
2022/06/19 09:24:01;;;;;;;4.20;1.92;;;33.90;99.90;;;;;;5044186;28;20189;-83
2022/06/19 09:26:42;;;;;;;1.70;1.60;;;33.80;99.90;;;;;;5042723;28;20205;-83
2022/06/19 09:29:41;;;;;;;3.72;1.95;;;33.90;99.90;;;;;;5044361;28;20209;-84
2022/06/19 09:32:12;;;;;;;4.20;3.47;;;34.00;99.90;;;;;;5043406;28;20193;-84
2022/06/19 09:34:54;;;;;;;4.72;2.05;;;34.10;99.90;;;;;;5043750;28;20297;-84
2022/06/19 09:37:28;;;;;;;1.48;1.38;;;34.10;99.90;;;;;;5044186;28;20208;-84
2022/06/19 09:39:57;;;;;;;2.17;1.90;;;34.20;99.90;;;;;;5045082;28;20942;-83
2022/06/19 09:42:24;;;;;;;2.15;1.40;;;34.20;99.90;;;;;;5039829;28;20189;-83
2022/06/19 09:45:21;;;;;;;3.85;3.55;;;34.20;99.90;;;;;;5043971;28;20192;-83
2022/06/19 09:48:09;;;;;;;1.75;1.65;;;34.40;99.90;;;;;;5008665;28;20223;-84
2022/06/19 09:50:49;;;;;;;1.98;1.65;;;34.50;99.90;;;;;;5043226;28;20177;-84
2022/06/19 09:53:36;;;;;;;1.08;1.08;;;34.50;99.90;;;;;;5042229;28;20253;-84
2022/06/19 09:56:20;;;;;;;3.28;1.33;;;34.60;99.90;;;;;;5042701;28;20205;-84
2022/06/19 09:58:53;;;;;;;5.53;3.00;;;34.80;99.90;;;;;;5044523;28;20177;-83
2022/06/19 10:01:20;;;;;;;1.77;1.67;;;34.80;99.90;;;;;;5042272;28;20247;-83
2022/06/19 10:04:05;;;;;;;1.80;1.70;;;34.90;99.90;;;;;;5040892;28;20185;-83
2022/06/19 10:06:40;;;;;;;2.90;1.38;;;34.80;99.90;;;;;;5035310;28;20275;-82
2022/06/19 10:09:28;;;;;;;1.60;1.17;;;34.70;99.90;;;;;;5042615;28;20186;-82
2022/06/19 10:11:58;;;;;;;1.40;1.30;;;34.70;99.90;;;;;;5043548;28;20659;-82
2022/06/19 10:14:45;;;;;;;1.08;1.08;;;34.90;99.90;;;;;;5043780;28;20198;-82
2022/06/19 10:17:33;;;;;;;0.63;0.63;;;35.10;99.90;;;;;;5043238;28;20206;-82
2022/06/19 10:20:16;;;;;;;2.83;1.50;;;35.20;99.90;;;;;;5042903;28;20200;-82
2022/06/19 10:23:04;;;;;;;1.98;1.23;;;35.50;99.90;;;;;;5040772;28;20186;-82
2022/06/19 10:25:50;;;;;;;1.45;1.02;;;35.40;99.90;;;;;;5043436;28;20170;-82
2022/06/19 10:28:25;;;;;;;2.08;1.52;;;34.80;99.90;;;;;;5042073;28;20197;-82
2022/06/19 10:31:05;;;;;;;1.70;1.60;;;34.40;99.90;;;;;;5042187;28;20269;-82
2022/06/19 10:33:54;;;;;;;2.00;1.52;;;34.00;99.90;;;;;;5038292;28;20208;-81
2022/06/19 10:37:07;;;;;;;1.55;1.42;;;34.00;99.90;;;;;;5042256;28;20205;-82
2022/06/19 10:39:49;;;;;;;3.47;1.90;;;34.50;99.90;;;;;;5044194;28;20205;-82
2022/06/19 10:42:23;;;;;;;1.40;1.30;;;34.20;99.90;;;;;;5041465;28;20193;-82
2022/06/19 10:45:24;;;;;;;2.95;1.17;;;34.20;99.90;;;;;;5044981;28;20185;-81
2022/06/19 10:48:11;;;;;;;2.08;1.98;;;34.10;99.90;;;;;;5043329;28;20244;-81
2022/06/19 10:50:46;;;;;;;0.90;0.90;;;34.10;99.90;;;;;;5043437;28;20189;-82
2022/06/19 10:53:32;;;;;;;1.50;1.40;;;34.40;99.90;;;;;;5042808;28;20212;-81
2022/06/19 10:56:15;;;;;;;1.42;1.33;;;34.20;99.90;;;;;;5043515;28;20185;-81
2022/06/19 10:58:41;;;;;;;1.92;1.80;;;34.20;99.90;;;;;;5044199;28;20189;-81
2022/06/19 11:01:09;;;;;;;2.10;1.25;;;33.80;99.90;;;;;;5044843;28;20193;-82
2022/06/19 11:07:03;;;;;;;3.72;2.72;;;33.60;99.90;;;;;;5045168;28;20225;-81
2022/06/19 11:09:34;;;;;;;1.90;1.52;;;33.40;99.90;;;;;;5042042;28;20185;-82
2022/06/19 11:12:30;;;;;;;1.90;1.23;;;32.80;99.90;;;;;;5043714;28;20816;-82
2022/06/19 11:14:58;;;;;;;1.15;0.95;;;32.20;99.90;;;;;;5026379;28;20272;-81
2022/06/19 11:17:37;;;;;;;3.47;1.55;;;32.60;99.90;;;;;;5061234;28;20260;-82
2022/06/19 11:20:21;;;;;;;1.23;1.13;;;32.70;99.90;;;;;;5042994;28;20268;-81
2022/06/19 11:22:49;;;;;;;0.95;0.95;;;32.80;99.90;;;;;;5039634;28;20704;-81
2022/06/19 11:25:24;;;;;;;3.90;2.88;;;32.90;99.90;;;;;;5044117;28;20598;-82
2022/06/19 11:27:56;;;;;;;1.88;1.27;;;32.90;99.90;;;;;;5041934;28;20219;-81
2022/06/19 11:30:51;;;;;;;1.88;1.77;;;32.80;99.90;;;;;;5040967;28;21282;-85
2022/06/19 11:33:27;;;;;;;1.65;1.52;;;32.70;99.90;;;;;;5041231;28;20232;-84
2022/06/19 11:35:57;;;;;;;1.33;1.10;;;32.90;99.90;;;;;;5041369;28;20184;-84
2022/06/19 11:38:34;;;;;;;1.33;1.00;;;32.80;99.90;;;;;;5040364;28;20178;-83
2022/06/19 11:40:59;;;;;;;2.25;1.20;;;32.60;99.90;;;;;;5038941;28;20181;-84
2022/06/19 11:43:32;;;;;;;1.63;1.52;;;32.50;99.90;;;;;;5043427;28;20197;-83
2022/06/19 11:46:05;;;;;;;1.23;1.13;;;31.80;99.90;;;;;;5039720;28;20216;-84
2022/06/19 11:48:31;;;;;;;2.50;1.58;;;32.00;99.90;;;;;;5042465;28;20182;-84
2022/06/19 11:50:57;;;;;;;1.70;1.60;;;31.50;99.90;;;;;;5042433;28;20186;-84
2022/06/19 11:53:32;;;;;;;1.95;1.75;;;31.70;99.90;;;;;;5038921;28;20212;-83
2022/06/19 11:56:21;;;;;;;0.88;0.88;;;31.90;99.90;;;;;;5042279;28;20181;-84
2022/06/19 11:59:05;;;;;;;3.47;1.52;;;31.70;99.90;;;;;;5041620;28;20178;-84
2022/06/19 12:01:40;;;;;;;2.40;1.40;;;32.10;99.90;;;;;;5038588;28;20193;-83
2022/06/19 12:04:27;;;;;;;1.17;1.02;;;31.90;99.90;;;;;;5036937;28;20185;-83
2022/06/19 12:07:24;;;;;;;7.00;3.47;;;32.10;99.90;;;;;;5036879;28;20215;-82
2022/06/19 12:10:06;;;;;;;1.52;1.30;;;32.10;99.90;;;;;;5037046;28;20198;-84
2022/06/19 12:12:33;;;;;;;1.15;1.10;;;32.40;99.90;;;;;;5047588;28;20296;-83
2022/06/19 12:15:13;;;;;;;1.75;1.10;;;32.70;99.90;;;;;;5045755;28;20233;-83
2022/06/19 12:17:42;;;;;;;1.98;1.52;;;32.90;99.90;;;;;;5045549;28;20205;-83
2022/06/19 12:20:08;;;;;;;1.33;1.23;;;32.60;99.90;;;;;;5041417;28;20268;-83
2022/06/19 12:22:39;;;;;;;1.27;1.27;;;33.00;99.90;;;;;;5044035;28;20268;-83
2022/06/19 12:25:12;;;;;;;1.80;1.58;;;33.50;99.90;;;;;;5045184;28;20190;-83
2022/06/19 12:28:08;;;;;;;1.70;1.60;;;33.90;99.90;;;;;;5046271;28;20212;-83
2022/06/19 12:31:06;;;;;;;2.28;1.42;;;33.20;99.90;;;;;;5043699;28;20205;-83
2022/06/19 12:33:53;;;;;;;2.25;2.03;;;33.90;99.90;;;;;;5044549;28;20270;-82
2022/06/19 12:36:28;;;;;;;2.80;1.25;;;33.50;99.90;;;;;;5042600;28;20263;-83
2022/06/19 12:38:53;;;;;;;1.73;1.63;;;33.30;99.90;;;;;;5043284;28;20268;-83
2022/06/19 12:41:27;;;;;;;2.25;1.73;;;33.40;99.90;;;;;;5040287;28;20276;-83
2022/06/19 12:44:02;;;;;;;1.48;1.38;;;33.60;99.90;;;;;;5044167;28;20173;-83
2022/06/19 12:46:43;;;;;;;2.55;2.00;;;33.70;99.90;;;;;;5045735;28;20220;-83
2022/06/19 12:49:35;;;;;;;1.65;1.55;;;33.80;99.90;;;;;;5047579;28;20716;-82
2022/06/19 12:52:09;;;;;;;1.48;1.20;;;33.80;99.90;;;;;;5044818;28;20188;-83
2022/06/19 12:55:06;;;;;;;1.95;1.20;;;34.30;99.90;;;;;;5042248;28;20202;-83
2022/06/19 12:58:12;;;;;;;1.05;1.05;;;34.80;99.90;;;;;;5041158;28;20292;-83
2022/06/19 13:00:45;;;;;;;1.88;1.15;;;35.20;99.90;;;;;;5044347;28;20235;-83
2022/06/19 13:03:36;;;;;;;1.42;1.23;;;35.40;99.90;;;;;;5041718;28;20202;-83
2022/06/19 13:06:40;;;;;;;1.52;1.42;;;35.40;99.90;;;;;;5041591;28;20586;-83
2022/06/19 13:09:47;;;;;;;7.85;1.98;;;35.00;99.90;;;;;;5044873;28;20272;-83
2022/06/19 13:12:47;;;;;;;1.20;1.10;;;35.40;99.90;;;;;;5029648;28;20193;-83
2022/06/19 13:15:57;;;;;;;1.42;1.27;;;35.60;99.90;;;;;;5038435;28;20627;-83
2022/06/19 13:18:57;;;;;;;2.25;1.65;;;36.00;99.90;;;;;;5042991;28;20181;-83
2022/06/19 13:21:25;;;;;;;1.63;1.52;;;36.20;99.90;;;;;;5042638;28;20231;-83